PWSweather.com
Personal Weather Stations
Station Observations
BREAKEY01
Lévis, Breakeyville, QC G0S 1E1

LévisBreakeyville, QC G0S 1E1

Lat: 46.681, Lon: -71.224

Elevation: 328

Station Type: Davis Vantage Pro2

http://www.meteobreakey.webou.net/topic/index.php

Latest ConditionsUpdated 8:42:05 AM EDT Friday, Oct 31, 2014
Currently Today's Max Today's Min Today's Average
Temperature 37.0°F2.8°C 40.8°F4.9°C 36.7°F2.6°C 38.5°F3.6°C
Dew Point 33.3°F0.7°C 34.5°F1.4°C 32.9°F0.5°C 33.8°F1.0°C
Winds 2.0 mph SW3.2 kmh SW 4.9 mph WSW7.9 kmh WSW - 2.6 mph 4.2 kmh
Wind Gusts 4.0 mph6.4 kmh 8.1 mph13.0 kmh - -
Humidity 86% 86% 75% 83%
Pressure 30.06 in1017.9 mb 30.06 in1017.9 mb 29.97 in1014.9 mb -
Hour Temp Dew Point Humidity Winds Wind Gusts Pressure Precip Precip Rate Daily Precip Total
08:42 AM 37.0°F2.8°C 33.3°F0.7°C 86% 2.0 mph SW3.2 kmh SW 4.0 mph6.4 kmh 30.06 in1017.9 mb 0.00 in0.0 mm 0.00 in/hr0.0 mm/hr 0.00 in0.0 mm
08:37 AM 37.0°F2.8°C 33.3°F0.7°C 86% 2.0 mph S3.2 kmh S 0.9 mph1.4 kmh 30.06 in1017.9 mb 0.00 in0.0 mm 0.00 in/hr0.0 mm/hr 0.00 in0.0 mm
08:32 AM 36.9°F2.7°C 33.1°F0.6°C 86% 2.0 mph SW3.2 kmh SW 0.9 mph1.4 kmh 30.06 in1017.9 mb 0.00 in0.0 mm 0.00 in/hr0.0 mm/hr 0.00 in0.0 mm
08:27 AM 36.9°F2.7°C 33.1°F0.6°C 86% 2.9 mph SW4.7 kmh SW 2.0 mph3.2 kmh 30.05 in1017.6 mb 0.00 in0.0 mm 0.00 in/hr0.0 mm/hr 0.00 in0.0 mm
08:22 AM 36.9°F2.7°C 33.1°F0.6°C 86% 2.0 mph SW3.2 kmh SW 2.9 mph4.7 kmh 30.05 in1017.6 mb 0.00 in0.0 mm 0.00 in/hr0.0 mm/hr 0.00 in0.0 mm
08:17 AM 36.9°F2.7°C 33.1°F0.6°C 86% 0.9 mph SW1.4 kmh SW 0.9 mph1.4 kmh 30.05 in1017.6 mb 0.00 in0.0 mm 0.00 in/hr0.0 mm/hr 0.00 in0.0 mm
08:12 AM 36.9°F2.7°C 33.1°F0.6°C 86% 2.0 mph WSW3.2 kmh WSW 2.9 mph4.7 kmh 30.05 in1017.6 mb 0.00 in0.0 mm 0.00 in/hr0.0 mm/hr 0.00 in0.0 mm
08:07 AM 36.7°F2.6°C 32.9°F0.5°C 86% 2.9 mph WSW4.7 kmh WSW 2.0 mph3.2 kmh 30.05 in1017.6 mb 0.00 in0.0 mm 0.00 in/hr0.0 mm/hr 0.00 in0.0 mm
08:02 AM 36.9°F2.7°C 33.1°F0.6°C 86% 2.9 mph SW4.7 kmh SW 2.9 mph4.7 kmh 30.05 in1017.6 mb 0.00 in0.0 mm 0.00 in/hr0.0 mm/hr 0.00 in0.0 mm
07:57 AM 36.9°F2.7°C 33.1°F0.6°C 86% 2.0 mph SSW3.2 kmh SSW 4.9 mph7.9 kmh 30.05 in1017.6 mb 0.00 in0.0 mm 0.00 in/hr0.0 mm/hr 0.00 in0.0 mm
07:52 AM 36.9°F2.7°C 33.1°F0.6°C 86% 2.9 mph SSW4.7 kmh SSW -- 30.05 in1017.6 mb 0.00 in0.0 mm 0.00 in/hr0.0 mm/hr 0.00 in0.0 mm
07:47 AM 36.9°F2.7°C 33.1°F0.6°C 86% 2.9 mph SW4.7 kmh SW 2.9 mph4.7 kmh 30.04 in1017.3 mb 0.00 in0.0 mm 0.00 in/hr0.0 mm/hr 0.00 in0.0 mm
07:42 AM 37.0°F2.8°C 33.3°F0.7°C 86% 2.0 mph SSW3.2 kmh SSW 2.0 mph3.2 kmh 30.04 in1017.3 mb 0.00 in0.0 mm 0.00 in/hr0.0 mm/hr 0.00 in0.0 mm
07:37 AM 37.0°F2.8°C 33.3°F0.7°C 86% 2.0 mph SW3.2 kmh SW 2.0 mph3.2 kmh 30.04 in1017.3 mb 0.00 in0.0 mm 0.00 in/hr0.0 mm/hr 0.00 in0.0 mm
07:32 AM 37.0°F2.8°C 33.3°F0.7°C 86% 2.9 mph WSW4.7 kmh WSW 2.0 mph3.2 kmh 30.04 in1017.3 mb 0.00 in0.0 mm 0.00 in/hr0.0 mm/hr 0.00 in0.0 mm
07:27 AM 37.0°F2.8°C 33.3°F0.7°C 86% 2.9 mph SW4.7 kmh SW 4.0 mph6.4 kmh 30.04 in1017.3 mb 0.00 in0.0 mm 0.00 in/hr0.0 mm/hr 0.00 in0.0 mm
07:22 AM 37.2°F2.9°C 33.4°F0.8°C 86% 2.9 mph SW4.7 kmh SW 2.9 mph4.7 kmh 30.04 in1017.3 mb 0.00 in0.0 mm 0.00 in/hr0.0 mm/hr 0.00 in0.0 mm
07:17 AM 37.2°F2.9°C 33.4°F0.8°C 86% 4.0 mph SW6.4 kmh SW 0.9 mph1.4 kmh 30.04 in1017.3 mb 0.00 in0.0 mm 0.00 in/hr0.0 mm/hr 0.00 in0.0 mm
07:12 AM 37.2°F2.9°C 33.4°F0.8°C 86% 2.9 mph SW4.7 kmh SW 2.0 mph3.2 kmh 30.04 in1017.3 mb 0.00 in0.0 mm 0.00 in/hr0.0 mm/hr 0.00 in0.0 mm
07:07 AM 37.2°F2.9°C 33.4°F0.8°C 86% 2.9 mph SW4.7 kmh SW 4.0 mph6.4 kmh 30.04 in1017.3 mb 0.00 in0.0 mm 0.00 in/hr0.0 mm/hr 0.00 in0.0 mm
07:02 AM 37.4°F3.0°C 33.6°F0.9°C 86% 2.9 mph SW4.7 kmh SW -- 30.04 in1017.3 mb 0.00 in0.0 mm 0.00 in/hr0.0 mm/hr 0.00 in0.0 mm
06:57 AM 37.4°F3.0°C 33.6°F0.9°C 86% 2.0 mph WSW3.2 kmh WSW 4.0 mph6.4 kmh 30.03 in1016.9 mb 0.00 in0.0 mm 0.00 in/hr0.0 mm/hr 0.00 in0.0 mm
06:52 AM 37.4°F3.0°C 33.6°F0.9°C 86% 2.0 mph WSW3.2 kmh WSW 0.9 mph1.4 kmh 30.03 in1016.9 mb 0.00 in0.0 mm 0.00 in/hr0.0 mm/hr 0.00 in0.0 mm
06:47 AM 37.4°F3.0°C 33.6°F0.9°C 86% 2.0 mph WSW3.2 kmh WSW 2.0 mph3.2 kmh 30.03 in1016.9 mb 0.00 in0.0 mm 0.00 in/hr0.0 mm/hr 0.00 in0.0 mm
06:37 AM 37.6°F3.1°C 33.8°F1.0°C 86% 2.0 mph WSW3.2 kmh WSW 0.9 mph1.4 kmh 30.03 in1016.9 mb 0.00 in0.0 mm 0.00 in/hr0.0 mm/hr 0.00 in0.0 mm
06:32 AM 37.6°F3.1°C 33.8°F1.0°C 86% 2.9 mph WSW4.7 kmh WSW -- 30.03 in1016.9 mb 0.00 in0.0 mm 0.00 in/hr0.0 mm/hr 0.00 in0.0 mm
06:27 AM 37.6°F3.1°C 33.4°F0.8°C 85% 2.9 mph W4.7 kmh W 2.9 mph4.7 kmh 30.02 in1016.6 mb 0.00 in0.0 mm 0.00 in/hr0.0 mm/hr 0.00 in0.0 mm
06:22 AM 37.6°F3.1°C 33.4°F0.8°C 85% 2.9 mph WSW4.7 kmh WSW 2.0 mph3.2 kmh 30.02 in1016.6 mb 0.00 in0.0 mm 0.00 in/hr0.0 mm/hr 0.00 in0.0 mm
06:17 AM 37.6°F3.1°C 33.4°F0.8°C 85% 2.9 mph WSW4.7 kmh WSW 4.9 mph7.9 kmh 30.02 in1016.6 mb 0.00 in0.0 mm 0.00 in/hr0.0 mm/hr 0.00 in0.0 mm
06:12 AM 37.6°F3.1°C 33.4°F0.8°C 85% 2.9 mph WSW4.7 kmh WSW 0.9 mph1.4 kmh 30.02 in1016.6 mb 0.00 in0.0 mm 0.00 in/hr0.0 mm/hr 0.00 in0.0 mm
06:07 AM 37.6°F3.1°C 33.4°F0.8°C 85% 4.0 mph W6.4 kmh W 4.0 mph6.4 kmh 30.02 in1016.6 mb 0.00 in0.0 mm 0.00 in/hr0.0 mm/hr 0.00 in0.0 mm
06:02 AM 37.6°F3.1°C 33.4°F0.8°C 85% 4.0 mph WSW6.4 kmh WSW 4.0 mph6.4 kmh 30.02 in1016.6 mb 0.00 in0.0 mm 0.00 in/hr0.0 mm/hr 0.00 in0.0 mm
05:57 AM 37.8°F3.2°C 33.6°F0.9°C 85% 2.9 mph WSW4.7 kmh WSW 8.1 mph13.0 kmh 30.02 in1016.6 mb 0.00 in0.0 mm 0.00 in/hr0.0 mm/hr 0.00 in0.0 mm
05:52 AM 37.8°F3.2°C 33.6°F0.9°C 85% 2.0 mph WSW3.2 kmh WSW 2.9 mph4.7 kmh 30.01 in1016.3 mb 0.00 in0.0 mm 0.00 in/hr0.0 mm/hr 0.00 in0.0 mm
05:47 AM 37.8°F3.2°C 33.6°F0.9°C 85% 2.9 mph SW4.7 kmh SW 2.9 mph4.7 kmh 30.01 in1016.3 mb 0.00 in0.0 mm 0.00 in/hr0.0 mm/hr 0.00 in0.0 mm
05:42 AM 37.8°F3.2°C 33.4°F0.8°C 84% 4.0 mph WSW6.4 kmh WSW 2.9 mph4.7 kmh 30.01 in1016.3 mb 0.00 in0.0 mm 0.00 in/hr0.0 mm/hr 0.00 in0.0 mm
05:37 AM 37.8°F3.2°C 33.4°F0.8°C 84% 4.9 mph WSW7.9 kmh WSW 4.0 mph6.4 kmh 30.01 in1016.3 mb 0.00 in0.0 mm 0.00 in/hr0.0 mm/hr 0.00 in0.0 mm
05:32 AM 37.8°F3.2°C 33.4°F0.8°C 84% 4.9 mph WSW7.9 kmh WSW 4.9 mph7.9 kmh 30.01 in1016.3 mb 0.00 in0.0 mm 0.00 in/hr0.0 mm/hr 0.00 in0.0 mm
05:27 AM 37.8°F3.2°C 33.4°F0.8°C 84% 4.0 mph SW6.4 kmh SW 4.0 mph6.4 kmh 30.01 in1016.3 mb 0.00 in0.0 mm 0.00 in/hr0.0 mm/hr 0.00 in0.0 mm
05:22 AM 37.9°F3.3°C 33.6°F0.9°C 84% 4.0 mph SW6.4 kmh SW 4.0 mph6.4 kmh 30.01 in1016.3 mb 0.00 in0.0 mm 0.00 in/hr0.0 mm/hr 0.00 in0.0 mm
05:17 AM 37.9°F3.3°C 33.6°F0.9°C 84% 4.0 mph SW6.4 kmh SW 2.0 mph3.2 kmh 30.01 in1016.3 mb 0.00 in0.0 mm 0.00 in/hr0.0 mm/hr 0.00 in0.0 mm
05:12 AM 37.9°F3.3°C 33.6°F0.9°C 84% 4.0 mph WSW6.4 kmh WSW 4.0 mph6.4 kmh 30.01 in1016.3 mb 0.00 in0.0 mm 0.00 in/hr0.0 mm/hr 0.00 in0.0 mm
05:02 AM 37.9°F3.3°C 33.6°F0.9°C 84% 2.9 mph WSW4.7 kmh WSW 2.9 mph4.7 kmh 30.01 in1016.3 mb 0.00 in0.0 mm 0.00 in/hr0.0 mm/hr 0.00 in0.0 mm
04:57 AM 37.9°F3.3°C 33.6°F0.9°C 84% 2.9 mph WSW4.7 kmh WSW 2.9 mph4.7 kmh 30.01 in1016.3 mb 0.00 in0.0 mm 0.00 in/hr0.0 mm/hr 0.00 in0.0 mm
04:52 AM 38.1°F3.4°C 33.8°F1.0°C 84% 4.0 mph W6.4 kmh W 2.0 mph3.2 kmh 30.00 in1015.9 mb 0.00 in0.0 mm 0.00 in/hr0.0 mm/hr 0.00 in0.0 mm
04:47 AM 38.1°F3.4°C 33.8°F1.0°C 84% 4.0 mph SW6.4 kmh SW 4.0 mph6.4 kmh 30.01 in1016.3 mb 0.00 in0.0 mm 0.00 in/hr0.0 mm/hr 0.00 in0.0 mm
04:42 AM 38.1°F3.4°C 33.8°F1.0°C 84% 4.0 mph SW6.4 kmh SW 4.0 mph6.4 kmh 30.01 in1016.3 mb 0.00 in0.0 mm 0.00 in/hr0.0 mm/hr 0.00 in0.0 mm
04:37 AM 38.3°F3.5°C 34.0°F1.1°C 84% 2.9 mph WSW4.7 kmh WSW 4.0 mph6.4 kmh 30.00 in1015.9 mb 0.00 in0.0 mm 0.00 in/hr0.0 mm/hr 0.00 in0.0 mm
04:32 AM 38.3°F3.5°C 34.0°F1.1°C 84% 2.0 mph SW3.2 kmh SW 2.9 mph4.7 kmh 30.00 in1015.9 mb 0.00 in0.0 mm 0.00 in/hr0.0 mm/hr 0.00 in0.0 mm
04:27 AM 38.5°F3.6°C 34.2°F1.2°C 84% 2.0 mph WSW3.2 kmh WSW 4.9 mph7.9 kmh 30.00 in1015.9 mb 0.00 in0.0 mm 0.00 in/hr0.0 mm/hr 0.00 in0.0 mm
04:22 AM 38.5°F3.6°C 34.2°F1.2°C 84% 2.9 mph SW4.7 kmh SW 0.9 mph1.4 kmh 30.00 in1015.9 mb 0.00 in0.0 mm 0.00 in/hr0.0 mm/hr 0.00 in0.0 mm
04:17 AM 38.5°F3.6°C 34.2°F1.2°C 84% 2.9 mph SW4.7 kmh SW -- 30.00 in1015.9 mb 0.00 in0.0 mm 0.00 in/hr0.0 mm/hr 0.00 in0.0 mm
04:12 AM 38.7°F3.7°C 34.2°F1.2°C 84% 2.0 mph SW3.2 kmh SW 6.0 mph9.7 kmh 30.00 in1015.9 mb 0.00 in0.0 mm 0.00 in/hr0.0 mm/hr 0.00 in0.0 mm
04:07 AM 38.7°F3.7°C 34.2°F1.2°C 84% 2.0 mph SW3.2 kmh SW 4.9 mph7.9 kmh 30.00 in1015.9 mb 0.00 in0.0 mm 0.00 in/hr0.0 mm/hr 0.00 in0.0 mm
04:02 AM 38.7°F3.7°C 34.0°F1.1°C 83% 2.0 mph SW3.2 kmh SW 2.0 mph3.2 kmh 30.00 in1015.9 mb 0.00 in0.0 mm 0.00 in/hr0.0 mm/hr 0.00 in0.0 mm
03:57 AM 38.7°F3.7°C 34.0°F1.1°C 83% 2.0 mph SW3.2 kmh SW 2.0 mph3.2 kmh 29.99 in1015.6 mb 0.00 in0.0 mm 0.00 in/hr0.0 mm/hr 0.00 in0.0 mm
03:52 AM 38.7°F3.7°C 34.0°F1.1°C 83% 0.9 mph WSW1.4 kmh WSW 0.9 mph1.4 kmh 29.99 in1015.6 mb 0.00 in0.0 mm 0.00 in/hr0.0 mm/hr 0.00 in0.0 mm
03:47 AM 38.7°F3.7°C 34.0°F1.1°C 83% 2.0 mph WSW3.2 kmh WSW 2.0 mph3.2 kmh 29.99 in1015.6 mb 0.00 in0.0 mm 0.00 in/hr0.0 mm/hr 0.00 in0.0 mm
03:42 AM 38.7°F3.7°C 34.0°F1.1°C 83% 2.0 mph WSW3.2 kmh WSW -- 29.99 in1015.6 mb 0.00 in0.0 mm 0.00 in/hr0.0 mm/hr 0.00 in0.0 mm
03:37 AM 38.8°F3.8°C 34.2°F1.2°C 83% 2.0 mph W3.2 kmh W 2.0 mph3.2 kmh 29.99 in1015.6 mb 0.00 in0.0 mm 0.00 in/hr0.0 mm/hr 0.00 in0.0 mm
03:32 AM 38.8°F3.8°C 34.2°F1.2°C 83% 2.9 mph W4.7 kmh W -- 29.99 in1015.6 mb 0.00 in0.0 mm 0.00 in/hr0.0 mm/hr 0.00 in0.0 mm
03:27 AM 38.8°F3.8°C 34.2°F1.2°C 83% 2.9 mph WSW4.7 kmh WSW 2.9 mph4.7 kmh 29.99 in1015.6 mb 0.00 in0.0 mm 0.00 in/hr0.0 mm/hr 0.00 in0.0 mm
03:22 AM 38.8°F3.8°C 34.2°F1.2°C 83% 2.9 mph W4.7 kmh W 0.9 mph1.4 kmh 29.99 in1015.6 mb 0.00 in0.0 mm 0.00 in/hr0.0 mm/hr 0.00 in0.0 mm
03:17 AM 38.8°F3.8°C 33.8°F1.0°C 82% 4.0 mph WSW6.4 kmh WSW 2.9 mph4.7 kmh 29.99 in1015.6 mb 0.00 in0.0 mm 0.00 in/hr0.0 mm/hr 0.00 in0.0 mm
03:12 AM 38.8°F3.8°C 33.8°F1.0°C 82% 4.0 mph WSW6.4 kmh WSW 2.0 mph3.2 kmh 29.99 in1015.6 mb 0.00 in0.0 mm 0.00 in/hr0.0 mm/hr 0.00 in0.0 mm
03:07 AM 39.0°F3.9°C 34.0°F1.1°C 82% 4.0 mph WSW6.4 kmh WSW 2.9 mph4.7 kmh 29.99 in1015.6 mb 0.00 in0.0 mm 0.00 in/hr0.0 mm/hr 0.00 in0.0 mm
03:02 AM 39.0°F3.9°C 34.0°F1.1°C 82% 2.9 mph W4.7 kmh W 6.0 mph9.7 kmh 29.99 in1015.6 mb 0.00 in0.0 mm 0.00 in/hr0.0 mm/hr 0.00 in0.0 mm
02:57 AM 39.0°F3.9°C 34.0°F1.1°C 82% 2.0 mph WSW3.2 kmh WSW 2.0 mph3.2 kmh 29.99 in1015.6 mb 0.00 in0.0 mm 0.00 in/hr0.0 mm/hr 0.00 in0.0 mm
02:52 AM 39.0°F3.9°C 34.0°F1.1°C 82% 2.0 mph WSW3.2 kmh WSW 2.0 mph3.2 kmh 29.98 in1015.2 mb 0.00 in0.0 mm 0.00 in/hr0.0 mm/hr 0.00 in0.0 mm
02:47 AM 39.2°F4.0°C 34.2°F1.2°C 82% 2.0 mph SW3.2 kmh SW 2.0 mph3.2 kmh 29.98 in1015.2 mb 0.00 in0.0 mm 0.00 in/hr0.0 mm/hr 0.00 in0.0 mm
02:42 AM 39.2°F4.0°C 34.2°F1.2°C 82% 2.0 mph WSW3.2 kmh WSW 2.0 mph3.2 kmh 29.98 in1015.2 mb 0.00 in0.0 mm 0.00 in/hr0.0 mm/hr 0.00 in0.0 mm
02:37 AM 39.2°F4.0°C 33.8°F1.0°C 81% 2.0 mph SW3.2 kmh SW 2.9 mph4.7 kmh 29.98 in1015.2 mb 0.00 in0.0 mm 0.00 in/hr0.0 mm/hr 0.00 in0.0 mm
02:32 AM 39.4°F4.1°C 34.0°F1.1°C 81% 2.0 mph SW3.2 kmh SW 0.9 mph1.4 kmh 29.98 in1015.2 mb 0.00 in0.0 mm 0.00 in/hr0.0 mm/hr 0.00 in0.0 mm
02:27 AM 39.4°F4.1°C 34.0°F1.1°C 81% 2.9 mph WSW4.7 kmh WSW 2.0 mph3.2 kmh 29.98 in1015.2 mb 0.00 in0.0 mm 0.00 in/hr0.0 mm/hr 0.00 in0.0 mm
02:22 AM 39.4°F4.1°C 34.0°F1.1°C 81% 2.9 mph WSW4.7 kmh WSW 4.0 mph6.4 kmh 29.98 in1015.2 mb 0.00 in0.0 mm 0.00 in/hr0.0 mm/hr 0.00 in0.0 mm
02:17 AM 39.6°F4.2°C 34.2°F1.2°C 81% 2.9 mph WSW4.7 kmh WSW 2.9 mph4.7 kmh 29.98 in1015.2 mb 0.00 in0.0 mm 0.00 in/hr0.0 mm/hr 0.00 in0.0 mm
02:12 AM 39.6°F4.2°C 34.2°F1.2°C 81% 2.0 mph WSW3.2 kmh WSW 2.9 mph4.7 kmh 29.98 in1015.2 mb 0.00 in0.0 mm 0.00 in/hr0.0 mm/hr 0.00 in0.0 mm
02:07 AM 39.6°F4.2°C 34.2°F1.2°C 81% 0.9 mph WSW1.4 kmh WSW 2.0 mph3.2 kmh 29.97 in1014.9 mb 0.00 in0.0 mm 0.00 in/hr0.0 mm/hr 0.00 in0.0 mm
02:02 AM 39.6°F4.2°C 34.2°F1.2°C 81% 0.9 mph WSW1.4 kmh WSW 0.9 mph1.4 kmh 29.97 in1014.9 mb 0.00 in0.0 mm 0.00 in/hr0.0 mm/hr 0.00 in0.0 mm
01:57 AM 39.7°F4.3°C 34.3°F1.3°C 81% 2.0 mph WSW3.2 kmh WSW 0.9 mph1.4 kmh 29.97 in1014.9 mb 0.00 in0.0 mm 0.00 in/hr0.0 mm/hr 0.00 in0.0 mm
01:52 AM 39.7°F4.3°C 34.3°F1.3°C 81% 0.9 mph WSW1.4 kmh WSW 2.0 mph3.2 kmh 29.97 in1014.9 mb 0.00 in0.0 mm 0.00 in/hr0.0 mm/hr 0.00 in0.0 mm
01:47 AM 39.7°F4.3°C 34.2°F1.2°C 80% 0.9 mph W1.4 kmh W 2.0 mph3.2 kmh 29.97 in1014.9 mb 0.00 in0.0 mm 0.00 in/hr0.0 mm/hr 0.00 in0.0 mm
01:42 AM 39.7°F4.3°C 34.2°F1.2°C 80% 2.0 mph W3.2 kmh W -- 29.97 in1014.9 mb 0.00 in0.0 mm 0.00 in/hr0.0 mm/hr 0.00 in0.0 mm
01:37 AM 39.9°F4.4°C 34.5°F1.4°C 81% 2.9 mph WSW4.7 kmh WSW 4.0 mph6.4 kmh 29.98 in1015.2 mb 0.00 in0.0 mm 0.00 in/hr0.0 mm/hr 0.00 in0.0 mm
01:32 AM 39.9°F4.4°C 34.3°F1.3°C 80% 2.0 mph WSW3.2 kmh WSW 2.9 mph4.7 kmh 29.98 in1015.2 mb 0.00 in0.0 mm 0.00 in/hr0.0 mm/hr 0.00 in0.0 mm
01:27 AM 39.9°F4.4°C 34.3°F1.3°C 80% 0.9 mph WSW1.4 kmh WSW 2.9 mph4.7 kmh 29.98 in1015.2 mb 0.00 in0.0 mm 0.00 in/hr0.0 mm/hr 0.00 in0.0 mm
01:22 AM 39.9°F4.4°C 34.0°F1.1°C 79% 0.9 mph W1.4 kmh W -- 29.98 in1015.2 mb 0.00 in0.0 mm 0.00 in/hr0.0 mm/hr 0.00 in0.0 mm
01:17 AM 39.9°F4.4°C 34.0°F1.1°C 79% 2.0 mph W3.2 kmh W -- 29.98 in1015.2 mb 0.00 in0.0 mm 0.00 in/hr0.0 mm/hr 0.00 in0.0 mm
01:12 AM 39.9°F4.4°C 34.0°F1.1°C 79% 2.9 mph WSW4.7 kmh WSW 2.0 mph3.2 kmh 29.98 in1015.2 mb 0.00 in0.0 mm 0.00 in/hr0.0 mm/hr 0.00 in0.0 mm
01:07 AM 39.9°F4.4°C 34.0°F1.1°C 79% 4.0 mph WSW6.4 kmh WSW 2.0 mph3.2 kmh 29.98 in1015.2 mb 0.00 in0.0 mm 0.00 in/hr0.0 mm/hr 0.00 in0.0 mm
01:02 AM 40.1°F4.5°C 34.2°F1.2°C 79% 2.9 mph WSW4.7 kmh WSW 6.9 mph11.1 kmh 29.98 in1015.2 mb 0.00 in0.0 mm 0.00 in/hr0.0 mm/hr 0.00 in0.0 mm
12:57 AM 40.3°F4.6°C 34.3°F1.3°C 79% 2.0 mph WSW3.2 kmh WSW 4.0 mph6.4 kmh 29.98 in1015.2 mb 0.00 in0.0 mm 0.00 in/hr0.0 mm/hr 0.00 in0.0 mm
12:52 AM 40.3°F4.6°C 34.0°F1.1°C 78% 0.9 mph WSW1.4 kmh WSW 2.0 mph3.2 kmh 29.98 in1015.2 mb 0.00 in0.0 mm 0.00 in/hr0.0 mm/hr 0.00 in0.0 mm
12:47 AM 40.5°F4.7°C 34.2°F1.2°C 78% 0.9 mph W1.4 kmh W 2.0 mph3.2 kmh 29.98 in1015.2 mb 0.00 in0.0 mm 0.00 in/hr0.0 mm/hr 0.00 in0.0 mm
12:42 AM 40.5°F4.7°C 34.2°F1.2°C 78% 2.0 mph WSW3.2 kmh WSW -- 29.98 in1015.2 mb 0.00 in0.0 mm 0.00 in/hr0.0 mm/hr 0.00 in0.0 mm
12:37 AM 40.5°F4.7°C 34.2°F1.2°C 78% 2.9 mph WSW4.7 kmh WSW 2.9 mph4.7 kmh 29.98 in1015.2 mb 0.00 in0.0 mm 0.00 in/hr0.0 mm/hr 0.00 in0.0 mm
12:32 AM 40.5°F4.7°C 34.2°F1.2°C 78% 2.0 mph WSW3.2 kmh WSW 2.9 mph4.7 kmh 29.98 in1015.2 mb 0.00 in0.0 mm 0.00 in/hr0.0 mm/hr 0.00 in0.0 mm
12:27 AM 40.5°F4.7°C 34.2°F1.2°C 78% 2.0 mph W3.2 kmh W 0.9 mph1.4 kmh 29.97 in1014.9 mb 0.00 in0.0 mm 0.00 in/hr0.0 mm/hr 0.00 in0.0 mm
12:22 AM 40.5°F4.7°C 34.2°F1.2°C 78% 2.9 mph WSW4.7 kmh WSW 2.9 mph4.7 kmh 29.98 in1015.2 mb 0.00 in0.0 mm 0.00 in/hr0.0 mm/hr 0.00 in0.0 mm
12:17 AM 40.6°F4.8°C 34.3°F1.3°C 78% 2.9 mph WSW4.7 kmh WSW 2.9 mph4.7 kmh 29.97 in1014.9 mb 0.00 in0.0 mm 0.00 in/hr0.0 mm/hr 0.00 in0.0 mm
12:12 AM 40.6°F4.8°C 34.0°F1.1°C 77% 2.9 mph WSW4.7 kmh WSW 2.9 mph4.7 kmh 29.97 in1014.9 mb 0.00 in0.0 mm 0.00 in/hr0.0 mm/hr 0.00 in0.0 mm
12:07 AM 40.6°F4.8°C 33.6°F0.9°C 76% 2.0 mph WSW3.2 kmh WSW 2.9 mph4.7 kmh 29.98 in1015.2 mb 0.00 in0.0 mm 0.00 in/hr0.0 mm/hr 0.00 in0.0 mm
12:02 AM 40.8°F4.9°C 33.4°F0.8°C 75% 2.0 mph WSW3.2 kmh WSW 2.0 mph3.2 kmh 29.97 in1014.9 mb 0.00 in0.0 mm 0.00 in/hr0.0 mm/hr 0.01 in0.3 mm